Mostoles, Spain
Current Conditions -  °F | °C
As of 8:00 PM on Friday 28 Nov 2014 (Local Time) from LEVS Reporting Station
Scattered Clouds Scattered Clouds  
Wind Chill: 45°   Ceiling: Unl
Heat Index: 48°   Visibility: 6mi
Dew Point: 48°   Wind: 8mph
Humidity: 100%   Direction: 110°ESE
Pressure: 29.23"   Gusts: NA
Location:  40.32°N, 3.87°W
Report Text: LEVS 281900Z 11007KT 080V150 9999 SCT030 09/09 Q0990
Loading
Personal Weather Stations






























Interactive Weather Map New forecast layout! Learn more

10-Day Weather Forecast

Advertisements
Track Severe Weather on mobile